sensor_id;sensor_type;location;lat;lon;timestamp;P1;durP1;ratioP1;P2;durP2;ratioP2
40164;SDS011;25882;51.120;17.248;2022-10-17T00:02:18;70.20;;;38.80;;
40164;SDS011;25882;51.120;17.248;2022-10-17T00:04:44;82.80;;;46.83;;
40164;SDS011;25882;51.120;17.248;2022-10-17T00:07:10;72.40;;;38.45;;
40164;SDS011;25882;51.120;17.248;2022-10-17T00:09:36;65.55;;;37.55;;
40164;SDS011;25882;51.120;17.248;2022-10-17T00:12:02;44.50;;;26.63;;
40164;SDS011;25882;51.120;17.248;2022-10-17T00:14:28;47.83;;;28.50;;
40164;SDS011;25882;51.120;17.248;2022-10-17T00:16:55;55.13;;;31.33;;
40164;SDS011;25882;51.120;17.248;2022-10-17T00:19:21;56.05;;;31.20;;
40164;SDS011;25882;51.120;17.248;2022-10-17T00:21:47;61.60;;;31.60;;
40164;SDS011;25882;51.120;17.248;2022-10-17T00:24:14;53.95;;;30.85;;
40164;SDS011;25882;51.120;17.248;2022-10-17T00:26:39;54.92;;;31.77;;
40164;SDS011;25882;51.120;17.248;2022-10-17T00:29:06;58.67;;;31.15;;
40164;SDS011;25882;51.120;17.248;2022-10-17T00:31:32;60.15;;;33.63;;
40164;SDS011;25882;51.120;17.248;2022-10-17T00:33:59;60.83;;;32.35;;
40164;SDS011;25882;51.120;17.248;2022-10-17T00:36:25;55.50;;;31.77;;
40164;SDS011;25882;51.120;17.248;2022-10-17T00:38:53;50.58;;;29.48;;
40164;SDS011;25882;51.120;17.248;2022-10-17T00:41:20;49.95;;;30.00;;
40164;SDS011;25882;51.120;17.248;2022-10-17T00:43:47;52.75;;;30.35;;
40164;SDS011;25882;51.120;17.248;2022-10-17T00:46:13;66.60;;;34.67;;
40164;SDS011;25882;51.120;17.248;2022-10-17T00:48:40;66.55;;;35.55;;
40164;SDS011;25882;51.120;17.248;2022-10-17T00:51:08;56.13;;;30.23;;
40164;SDS011;25882;51.120;17.248;2022-10-17T00:53:34;58.88;;;32.72;;
40164;SDS011;25882;51.120;17.248;2022-10-17T00:56:00;65.20;;;34.25;;
40164;SDS011;25882;51.120;17.248;2022-10-17T00:58:26;76.28;;;37.50;;
40164;SDS011;25882;51.120;17.248;2022-10-17T01:00:52;76.55;;;38.97;;
40164;SDS011;25882;51.120;17.248;2022-10-17T01:03:18;89.13;;;43.78;;
40164;SDS011;25882;51.120;17.248;2022-10-17T01:05:44;90.93;;;42.58;;
40164;SDS011;25882;51.120;17.248;2022-10-17T01:08:12;74.93;;;39.88;;
40164;SDS011;25882;51.120;17.248;2022-10-17T01:10:39;74.93;;;38.40;;
40164;SDS011;25882;51.120;17.248;2022-10-17T01:13:10;76.18;;;37.13;;
40164;SDS011;25882;51.120;17.248;2022-10-17T01:15:42;73.80;;;37.58;;
40164;SDS011;25882;51.120;17.248;2022-10-17T01:18:12;72.00;;;39.22;;
40164;SDS011;25882;51.120;17.248;2022-10-17T01:23:29;70.28;;;34.20;;
40164;SDS011;25882;51.120;17.248;2022-10-17T01:25:58;71.72;;;35.65;;
40164;SDS011;25882;51.120;17.248;2022-10-17T01:28:35;60.50;;;34.08;;
40164;SDS011;25882;51.120;17.248;2022-10-17T01:31:07;82.03;;;38.67;;
40164;SDS011;25882;51.120;17.248;2022-10-17T01:33:43;75.78;;;38.20;;
40164;SDS011;25882;51.120;17.248;2022-10-17T01:36:10;63.10;;;36.20;;
40164;SDS011;25882;51.120;17.248;2022-10-17T01:38:39;72.68;;;36.55;;
40164;SDS011;25882;51.120;17.248;2022-10-17T01:41:09;69.45;;;37.45;;
40164;SDS011;25882;51.120;17.248;2022-10-17T01:43:38;78.03;;;39.03;;
40164;SDS011;25882;51.120;17.248;2022-10-17T01:46:09;80.80;;;40.58;;
40164;SDS011;25882;51.120;17.248;2022-10-17T01:48:36;81.28;;;40.28;;
40164;SDS011;25882;51.120;17.248;2022-10-17T01:51:06;90.00;;;44.80;;
40164;SDS011;25882;51.120;17.248;2022-10-17T01:53:33;89.28;;;43.30;;
40164;SDS011;25882;51.120;17.248;2022-10-17T01:56:01;78.45;;;40.33;;
40164;SDS011;25882;51.120;17.248;2022-10-17T01:58:29;73.75;;;39.80;;
40164;SDS011;25882;51.120;17.248;2022-10-17T02:04:14;68.43;;;36.08;;
40164;SDS011;25882;51.120;17.248;2022-10-17T02:06:40;71.55;;;36.38;;
40164;SDS011;25882;51.120;17.248;2022-10-17T02:09:16;72.70;;;37.85;;
40164;SDS011;25882;51.120;17.248;2022-10-17T02:11:42;62.97;;;35.20;;
40164;SDS011;25882;51.120;17.248;2022-10-17T02:14:13;61.10;;;33.08;;
40164;SDS011;25882;51.120;17.248;2022-10-17T02:16:45;46.20;;;27.90;;
40164;SDS011;25882;51.120;17.248;2022-10-17T02:19:32;47.20;;;27.05;;
40164;SDS011;25882;51.120;17.248;2022-10-17T02:22:04;52.53;;;28.90;;
40164;SDS011;25882;51.120;17.248;2022-10-17T02:24:31;55.35;;;30.88;;
40164;SDS011;25882;51.120;17.248;2022-10-17T02:27:02;62.75;;;32.88;;
40164;SDS011;25882;51.120;17.248;2022-10-17T02:29:31;63.67;;;33.25;;
40164;SDS011;25882;51.120;17.248;2022-10-17T02:31:58;60.30;;;33.42;;
40164;SDS011;25882;51.120;17.248;2022-10-17T02:34:25;65.95;;;34.45;;
40164;SDS011;25882;51.120;17.248;2022-10-17T02:36:56;64.60;;;34.72;;
40164;SDS011;25882;51.120;17.248;2022-10-17T02:39:24;73.05;;;37.83;;
40164;SDS011;25882;51.120;17.248;2022-10-17T02:41:50;71.18;;;37.30;;
40164;SDS011;25882;51.120;17.248;2022-10-17T02:44:17;72.55;;;38.88;;
40164;SDS011;25882;51.120;17.248;2022-10-17T02:46:44;86.40;;;42.35;;
40164;SDS011;25882;51.120;17.248;2022-10-17T02:49:15;94.90;;;45.92;;
40164;SDS011;25882;51.120;17.248;2022-10-17T02:51:42;90.40;;;43.40;;
40164;SDS011;25882;51.120;17.248;2022-10-17T02:54:12;90.15;;;44.55;;
40164;SDS011;25882;51.120;17.248;2022-10-17T02:56:43;90.57;;;45.05;;
40164;SDS011;25882;51.120;17.248;2022-10-17T02:59:11;85.85;;;42.40;;
40164;SDS011;25882;51.120;17.248;2022-10-17T03:01:40;89.05;;;43.08;;
40164;SDS011;25882;51.120;17.248;2022-10-17T03:04:07;82.25;;;42.08;;
40164;SDS011;25882;51.120;17.248;2022-10-17T03:06:33;75.05;;;40.22;;
40164;SDS011;25882;51.120;17.248;2022-10-17T03:09:00;81.00;;;40.78;;
40164;SDS011;25882;51.120;17.248;2022-10-17T03:11:27;69.53;;;36.30;;
40164;SDS011;25882;51.120;17.248;2022-10-17T03:13:54;66.35;;;35.20;;
40164;SDS011;25882;51.120;17.248;2022-10-17T03:16:19;66.95;;;34.30;;
40164;SDS011;25882;51.120;17.248;2022-10-17T03:18:46;63.00;;;35.28;;
40164;SDS011;25882;51.120;17.248;2022-10-17T03:21:11;65.80;;;35.80;;
40164;SDS011;25882;51.120;17.248;2022-10-17T03:23:38;64.65;;;37.35;;
40164;SDS011;25882;51.120;17.248;2022-10-17T03:26:03;74.03;;;37.20;;
40164;SDS011;25882;51.120;17.248;2022-10-17T03:28:31;78.10;;;37.38;;
40164;SDS011;25882;51.120;17.248;2022-10-17T03:30:57;76.55;;;38.08;;
40164;SDS011;25882;51.120;17.248;2022-10-17T03:33:23;75.05;;;39.92;;
40164;SDS011;25882;51.120;17.248;2022-10-17T03:35:50;70.68;;;38.15;;
40164;SDS011;25882;51.120;17.248;2022-10-17T03:38:16;71.88;;;37.85;;
40164;SDS011;25882;51.120;17.248;2022-10-17T03:40:42;54.72;;;31.63;;
40164;SDS011;25882;51.120;17.248;2022-10-17T03:43:08;52.05;;;29.70;;
40164;SDS011;25882;51.120;17.248;2022-10-17T03:45:37;57.85;;;32.55;;
40164;SDS011;25882;51.120;17.248;2022-10-17T03:48:04;63.15;;;34.28;;
40164;SDS011;25882;51.120;17.248;2022-10-17T03:50:30;79.50;;;37.80;;
40164;SDS011;25882;51.120;17.248;2022-10-17T03:52:56;86.03;;;40.65;;
40164;SDS011;25882;51.120;17.248;2022-10-17T03:55:22;87.75;;;43.40;;
40164;SDS011;25882;51.120;17.248;2022-10-17T03:57:49;83.13;;;41.75;;
40164;SDS011;25882;51.120;17.248;2022-10-17T04:00:14;84.55;;;42.30;;
40164;SDS011;25882;51.120;17.248;2022-10-17T04:02:42;93.95;;;42.42;;
40164;SDS011;25882;51.120;17.248;2022-10-17T04:05:09;92.97;;;41.97;;
40164;SDS011;25882;51.120;17.248;2022-10-17T04:07:36;83.60;;;41.25;;
40164;SDS011;25882;51.120;17.248;2022-10-17T04:10:02;91.22;;;42.42;;
40164;SDS011;25882;51.120;17.248;2022-10-17T04:12:29;82.45;;;39.53;;
40164;SDS011;25882;51.120;17.248;2022-10-17T04:14:55;67.75;;;35.35;;
40164;SDS011;25882;51.120;17.248;2022-10-17T04:17:21;70.97;;;37.45;;
40164;SDS011;25882;51.120;17.248;2022-10-17T04:19:49;80.75;;;38.17;;
40164;SDS011;25882;51.120;17.248;2022-10-17T04:22:15;84.85;;;38.50;;
40164;SDS011;25882;51.120;17.248;2022-10-17T04:24:41;73.63;;;37.13;;
40164;SDS011;25882;51.120;17.248;2022-10-17T04:27:07;76.38;;;36.72;;
40164;SDS011;25882;51.120;17.248;2022-10-17T04:29:33;75.68;;;39.03;;
40164;SDS011;25882;51.120;17.248;2022-10-17T04:32:03;73.13;;;36.63;;
40164;SDS011;25882;51.120;17.248;2022-10-17T04:34:28;75.20;;;34.85;;
40164;SDS011;25882;51.120;17.248;2022-10-17T04:36:59;75.80;;;36.10;;
40164;SDS011;25882;51.120;17.248;2022-10-17T04:39:25;76.22;;;37.63;;
40164;SDS011;25882;51.120;17.248;2022-10-17T04:41:51;66.85;;;35.15;;
40164;SDS011;25882;51.120;17.248;2022-10-17T04:44:17;77.43;;;35.53;;
40164;SDS011;25882;51.120;17.248;2022-10-17T04:46:43;77.07;;;36.47;;
40164;SDS011;25882;51.120;17.248;2022-10-17T04:49:12;65.32;;;35.17;;
40164;SDS011;25882;51.120;17.248;2022-10-17T04:51:38;70.47;;;34.95;;
40164;SDS011;25882;51.120;17.248;2022-10-17T04:54:05;85.15;;;38.65;;
40164;SDS011;25882;51.120;17.248;2022-10-17T04:56:31;77.70;;;38.08;;
40164;SDS011;25882;51.120;17.248;2022-10-17T04:58:58;83.53;;;39.70;;
40164;SDS011;25882;51.120;17.248;2022-10-17T05:01:24;84.15;;;41.50;;
40164;SDS011;25882;51.120;17.248;2022-10-17T05:03:50;90.45;;;43.83;;
40164;SDS011;25882;51.120;17.248;2022-10-17T05:06:17;95.55;;;43.58;;
40164;SDS011;25882;51.120;17.248;2022-10-17T05:08:43;93.47;;;41.97;;
40164;SDS011;25882;51.120;17.248;2022-10-17T05:11:16;85.78;;;40.67;;
40164;SDS011;25882;51.120;17.248;2022-10-17T05:13:42;76.93;;;38.33;;
40164;SDS011;25882;51.120;17.248;2022-10-17T05:16:09;71.60;;;36.13;;
40164;SDS011;25882;51.120;17.248;2022-10-17T05:18:35;67.45;;;35.75;;
40164;SDS011;25882;51.120;17.248;2022-10-17T05:21:01;77.10;;;37.22;;
40164;SDS011;25882;51.120;17.248;2022-10-17T05:23:28;73.70;;;36.95;;
40164;SDS011;25882;51.120;17.248;2022-10-17T05:25:54;75.60;;;38.03;;
40164;SDS011;25882;51.120;17.248;2022-10-17T05:28:21;74.10;;;36.55;;
40164;SDS011;25882;51.120;17.248;2022-10-17T05:30:48;75.85;;;36.35;;
40164;SDS011;25882;51.120;17.248;2022-10-17T05:33:14;63.28;;;34.65;;
40164;SDS011;25882;51.120;17.248;2022-10-17T05:35:40;84.90;;;37.10;;
40164;SDS011;25882;51.120;17.248;2022-10-17T05:38:06;91.70;;;37.42;;
40164;SDS011;25882;51.120;17.248;2022-10-17T05:40:32;71.15;;;36.58;;
40164;SDS011;25882;51.120;17.248;2022-10-17T05:42:58;91.20;;;37.90;;
40164;SDS011;25882;51.120;17.248;2022-10-17T05:45:25;88.80;;;38.85;;
40164;SDS011;25882;51.120;17.248;2022-10-17T05:47:51;162.77;;;46.70;;
40164;SDS011;25882;51.120;17.248;2022-10-17T05:50:17;146.23;;;43.53;;
40164;SDS011;25882;51.120;17.248;2022-10-17T05:52:46;114.88;;;42.17;;
40164;SDS011;25882;51.120;17.248;2022-10-17T05:55:12;109.93;;;40.85;;
40164;SDS011;25882;51.120;17.248;2022-10-17T05:57:38;83.28;;;37.00;;
40164;SDS011;25882;51.120;17.248;2022-10-17T06:00:05;81.53;;;37.97;;
40164;SDS011;25882;51.120;17.248;2022-10-17T06:02:32;88.65;;;39.03;;
40164;SDS011;25882;51.120;17.248;2022-10-17T06:04:59;74.53;;;36.60;;
40164;SDS011;25882;51.120;17.248;2022-10-17T06:07:25;75.03;;;36.35;;
40164;SDS011;25882;51.120;17.248;2022-10-17T06:09:51;67.18;;;34.65;;
40164;SDS011;25882;51.120;17.248;2022-10-17T06:12:17;58.83;;;33.22;;
40164;SDS011;25882;51.120;17.248;2022-10-17T06:14:43;62.28;;;33.45;;
40164;SDS011;25882;51.120;17.248;2022-10-17T06:17:09;64.50;;;33.33;;
40164;SDS011;25882;51.120;17.248;2022-10-17T06:19:36;53.17;;;32.45;;
40164;SDS011;25882;51.120;17.248;2022-10-17T06:22:02;56.47;;;32.20;;
40164;SDS011;25882;51.120;17.248;2022-10-17T06:24:28;51.65;;;30.42;;
40164;SDS011;25882;51.120;17.248;2022-10-17T06:26:54;47.70;;;29.95;;
40164;SDS011;25882;51.120;17.248;2022-10-17T06:29:21;49.58;;;29.42;;
40164;SDS011;25882;51.120;17.248;2022-10-17T06:31:47;54.95;;;31.33;;
40164;SDS011;25882;51.120;17.248;2022-10-17T06:34:13;50.20;;;29.55;;
40164;SDS011;25882;51.120;17.248;2022-10-17T06:36:40;43.90;;;28.33;;
40164;SDS011;25882;51.120;17.248;2022-10-17T06:39:06;41.13;;;27.55;;
40164;SDS011;25882;51.120;17.248;2022-10-17T06:41:32;39.70;;;25.08;;
40164;SDS011;25882;51.120;17.248;2022-10-17T06:43:58;37.50;;;23.38;;
40164;SDS011;25882;51.120;17.248;2022-10-17T06:46:24;37.75;;;24.73;;
40164;SDS011;25882;51.120;17.248;2022-10-17T06:48:51;40.28;;;25.17;;
40164;SDS011;25882;51.120;17.248;2022-10-17T06:51:17;42.97;;;22.33;;
40164;SDS011;25882;51.120;17.248;2022-10-17T06:53:45;31.13;;;21.45;;
40164;SDS011;25882;51.120;17.248;2022-10-17T06:56:11;32.38;;;22.10;;
40164;SDS011;25882;51.120;17.248;2022-10-17T06:58:38;33.42;;;20.50;;
40164;SDS011;25882;51.120;17.248;2022-10-17T07:01:05;30.35;;;19.23;;
40164;SDS011;25882;51.120;17.248;2022-10-17T07:03:31;29.08;;;19.55;;
40164;SDS011;25882;51.120;17.248;2022-10-17T07:05:57;28.38;;;18.70;;
40164;SDS011;25882;51.120;17.248;2022-10-17T07:08:23;30.05;;;19.90;;
40164;SDS011;25882;51.120;17.248;2022-10-17T07:10:51;26.83;;;18.55;;
40164;SDS011;25882;51.120;17.248;2022-10-17T07:13:17;25.80;;;17.45;;
40164;SDS011;25882;51.120;17.248;2022-10-17T07:15:43;28.23;;;19.30;;
40164;SDS011;25882;51.120;17.248;2022-10-17T07:18:09;25.85;;;17.20;;
40164;SDS011;25882;51.120;17.248;2022-10-17T07:20:35;29.40;;;17.23;;
40164;SDS011;25882;51.120;17.248;2022-10-17T07:23:01;24.63;;;16.38;;
40164;SDS011;25882;51.120;17.248;2022-10-17T07:25:27;24.77;;;16.95;;
40164;SDS011;25882;51.120;17.248;2022-10-17T07:27:55;28.02;;;17.05;;
40164;SDS011;25882;51.120;17.248;2022-10-17T07:30:21;24.98;;;17.17;;
40164;SDS011;25882;51.120;17.248;2022-10-17T07:32:48;24.45;;;16.58;;
40164;SDS011;25882;51.120;17.248;2022-10-17T07:35:17;22.48;;;16.00;;
40164;SDS011;25882;51.120;17.248;2022-10-17T07:37:43;24.40;;;17.75;;
40164;SDS011;25882;51.120;17.248;2022-10-17T07:40:09;23.58;;;16.88;;
40164;SDS011;25882;51.120;17.248;2022-10-17T07:42:35;26.05;;;17.25;;
40164;SDS011;25882;51.120;17.248;2022-10-17T07:45:03;23.00;;;16.38;;
40164;SDS011;25882;51.120;17.248;2022-10-17T07:47:29;22.73;;;15.30;;
40164;SDS011;25882;51.120;17.248;2022-10-17T07:49:56;21.58;;;14.52;;
40164;SDS011;25882;51.120;17.248;2022-10-17T07:52:22;24.23;;;16.00;;
40164;SDS011;25882;51.120;17.248;2022-10-17T07:54:48;26.30;;;16.00;;
40164;SDS011;25882;51.120;17.248;2022-10-17T07:57:14;19.35;;;14.57;;
40164;SDS011;25882;51.120;17.248;2022-10-17T07:59:40;20.98;;;16.13;;
40164;SDS011;25882;51.120;17.248;2022-10-17T08:02:08;22.40;;;15.75;;
40164;SDS011;25882;51.120;17.248;2022-10-17T08:04:36;23.47;;;16.17;;
40164;SDS011;25882;51.120;17.248;2022-10-17T08:07:03;18.88;;;14.05;;
40164;SDS011;25882;51.120;17.248;2022-10-17T08:09:29;19.55;;;14.80;;
40164;SDS011;25882;51.120;17.248;2022-10-17T08:11:55;21.23;;;14.55;;
40164;SDS011;25882;51.120;17.248;2022-10-17T08:14:21;20.73;;;14.23;;
40164;SDS011;25882;51.120;17.248;2022-10-17T08:16:47;25.17;;;15.88;;
40164;SDS011;25882;51.120;17.248;2022-10-17T08:19:15;20.02;;;15.13;;
40164;SDS011;25882;51.120;17.248;2022-10-17T08:21:41;21.77;;;15.13;;
40164;SDS011;25882;51.120;17.248;2022-10-17T08:24:09;19.33;;;14.00;;
40164;SDS011;25882;51.120;17.248;2022-10-17T08:26:35;18.38;;;14.45;;
40164;SDS011;25882;51.120;17.248;2022-10-17T08:29:01;19.50;;;14.73;;
40164;SDS011;25882;51.120;17.248;2022-10-17T08:31:27;18.20;;;14.32;;
40164;SDS011;25882;51.120;17.248;2022-10-17T08:33:53;20.55;;;13.88;;
40164;SDS011;25882;51.120;17.248;2022-10-17T08:36:21;20.13;;;13.73;;
40164;SDS011;25882;51.120;17.248;2022-10-17T08:38:46;17.42;;;13.40;;
40164;SDS011;25882;51.120;17.248;2022-10-17T08:41:13;19.73;;;13.50;;
40164;SDS011;25882;51.120;17.248;2022-10-17T08:43:49;16.85;;;12.98;;
40164;SDS011;25882;51.120;17.248;2022-10-17T08:46:16;18.98;;;13.10;;
40164;SDS011;25882;51.120;17.248;2022-10-17T08:48:43;18.15;;;13.88;;
40164;SDS011;25882;51.120;17.248;2022-10-17T08:51:10;19.05;;;13.80;;
40164;SDS011;25882;51.120;17.248;2022-10-17T08:53:40;15.68;;;12.48;;
40164;SDS011;25882;51.120;17.248;2022-10-17T08:56:12;18.25;;;13.48;;
40164;SDS011;25882;51.120;17.248;2022-10-17T08:58:40;17.10;;;12.63;;
40164;SDS011;25882;51.120;17.248;2022-10-17T09:01:08;19.50;;;11.95;;
40164;SDS011;25882;51.120;17.248;2022-10-17T09:03:42;15.70;;;12.48;;
40164;SDS011;25882;51.120;17.248;2022-10-17T09:06:13;14.75;;;12.27;;
40164;SDS011;25882;51.120;17.248;2022-10-17T09:08:45;17.83;;;12.77;;
40164;SDS011;25882;51.120;17.248;2022-10-17T09:11:15;17.33;;;12.57;;
40164;SDS011;25882;51.120;17.248;2022-10-17T09:13:48;18.50;;;13.13;;
40164;SDS011;25882;51.120;17.248;2022-10-17T09:16:22;19.20;;;12.77;;
40164;SDS011;25882;51.120;17.248;2022-10-17T09:18:56;16.33;;;12.65;;
40164;SDS011;25882;51.120;17.248;2022-10-17T09:21:26;17.52;;;13.43;;
40164;SDS011;25882;51.120;17.248;2022-10-17T09:23:56;16.58;;;13.15;;
40164;SDS011;25882;51.120;17.248;2022-10-17T09:26:24;17.15;;;12.90;;
40164;SDS011;25882;51.120;17.248;2022-10-17T09:28:51;22.05;;;12.55;;
40164;SDS011;25882;51.120;17.248;2022-10-17T09:31:18;21.00;;;13.48;;
40164;SDS011;25882;51.120;17.248;2022-10-17T09:33:45;18.63;;;13.77;;
40164;SDS011;25882;51.120;17.248;2022-10-17T09:36:13;21.38;;;13.48;;
40164;SDS011;25882;51.120;17.248;2022-10-17T09:38:41;19.45;;;13.55;;
40164;SDS011;25882;51.120;17.248;2022-10-17T09:41:13;17.58;;;13.52;;
40164;SDS011;25882;51.120;17.248;2022-10-17T09:43:40;18.67;;;12.77;;
40164;SDS011;25882;51.120;17.248;2022-10-17T09:46:07;18.45;;;13.15;;
40164;SDS011;25882;51.120;17.248;2022-10-17T09:48:37;19.05;;;13.45;;
40164;SDS011;25882;51.120;17.248;2022-10-17T09:51:05;18.85;;;12.77;;
40164;SDS011;25882;51.120;17.248;2022-10-17T09:53:32;15.23;;;12.18;;
40164;SDS011;25882;51.120;17.248;2022-10-17T09:56:00;18.83;;;13.50;;
40164;SDS011;25882;51.120;17.248;2022-10-17T09:58:39;17.73;;;12.52;;
40164;SDS011;25882;51.120;17.248;2022-10-17T10:01:17;16.10;;;12.15;;
40164;SDS011;25882;51.120;17.248;2022-10-17T10:03:43;15.68;;;12.05;;
40164;SDS011;25882;51.120;17.248;2022-10-17T10:06:12;15.48;;;12.35;;
40164;SDS011;25882;51.120;17.248;2022-10-17T10:08:46;17.50;;;12.15;;
40164;SDS011;25882;51.120;17.248;2022-10-17T10:11:14;15.88;;;12.90;;
40164;SDS011;25882;51.120;17.248;2022-10-17T10:13:41;16.35;;;12.57;;
40164;SDS011;25882;51.120;17.248;2022-10-17T10:16:12;18.70;;;12.48;;
40164;SDS011;25882;51.120;17.248;2022-10-17T10:18:38;21.38;;;14.40;;
40164;SDS011;25882;51.120;17.248;2022-10-17T10:21:06;18.88;;;14.68;;
40164;SDS011;25882;51.120;17.248;2022-10-17T10:23:32;18.05;;;13.23;;
40164;SDS011;25882;51.120;17.248;2022-10-17T10:25:58;17.05;;;13.00;;
40164;SDS011;25882;51.120;17.248;2022-10-17T10:28:26;19.92;;;14.55;;
40164;SDS011;25882;51.120;17.248;2022-10-17T10:30:55;17.98;;;12.60;;
40164;SDS011;25882;51.120;17.248;2022-10-17T10:33:22;19.17;;;13.18;;
40164;SDS011;25882;51.120;17.248;2022-10-17T10:35:51;15.95;;;12.25;;
40164;SDS011;25882;51.120;17.248;2022-10-17T10:38:18;17.42;;;11.75;;
40164;SDS011;25882;51.120;17.248;2022-10-17T10:40:46;17.98;;;11.27;;
40164;SDS011;25882;51.120;17.248;2022-10-17T10:43:19;17.13;;;12.70;;
40164;SDS011;25882;51.120;17.248;2022-10-17T10:45:46;17.40;;;11.43;;
40164;SDS011;25882;51.120;17.248;2022-10-17T10:48:18;15.30;;;11.32;;
40164;SDS011;25882;51.120;17.248;2022-10-17T10:50:46;17.65;;;11.50;;
40164;SDS011;25882;51.120;17.248;2022-10-17T10:53:18;14.93;;;10.60;;
40164;SDS011;25882;51.120;17.248;2022-10-17T10:55:48;13.85;;;11.32;;
40164;SDS011;25882;51.120;17.248;2022-10-17T10:58:20;17.83;;;12.85;;
40164;SDS011;25882;51.120;17.248;2022-10-17T11:00:48;15.82;;;11.98;;
40164;SDS011;25882;51.120;17.248;2022-10-17T11:03:15;15.18;;;11.75;;
40164;SDS011;25882;51.120;17.248;2022-10-17T11:05:45;15.45;;;11.88;;
40164;SDS011;25882;51.120;17.248;2022-10-17T11:08:18;18.27;;;12.27;;
40164;SDS011;25882;51.120;17.248;2022-10-17T11:10:50;19.20;;;12.52;;
40164;SDS011;25882;51.120;17.248;2022-10-17T11:13:18;19.90;;;12.50;;
40164;SDS011;25882;51.120;17.248;2022-10-17T11:15:46;18.80;;;12.98;;
40164;SDS011;25882;51.120;17.248;2022-10-17T11:18:15;20.50;;;13.70;;
40164;SDS011;25882;51.120;17.248;2022-10-17T11:20:49;18.35;;;12.85;;
40164;SDS011;25882;51.120;17.248;2022-10-17T11:23:17;18.83;;;13.02;;
40164;SDS011;25882;51.120;17.248;2022-10-17T11:25:46;17.73;;;12.68;;
40164;SDS011;25882;51.120;17.248;2022-10-17T11:28:13;18.05;;;12.13;;
40164;SDS011;25882;51.120;17.248;2022-10-17T11:30:41;18.50;;;12.90;;
40164;SDS011;25882;51.120;17.248;2022-10-17T11:33:08;18.60;;;13.50;;
40164;SDS011;25882;51.120;17.248;2022-10-17T11:35:38;24.10;;;15.02;;
40164;SDS011;25882;51.120;17.248;2022-10-17T11:38:09;17.73;;;13.43;;
40164;SDS011;25882;51.120;17.248;2022-10-17T11:40:40;17.40;;;13.48;;
40164;SDS011;25882;51.120;17.248;2022-10-17T11:43:09;18.60;;;13.57;;
40164;SDS011;25882;51.120;17.248;2022-10-17T11:45:39;18.95;;;13.55;;
40164;SDS011;25882;51.120;17.248;2022-10-17T11:48:06;16.50;;;13.00;;
40164;SDS011;25882;51.120;17.248;2022-10-17T11:50:36;18.42;;;12.85;;
40164;SDS011;25882;51.120;17.248;2022-10-17T11:53:04;18.63;;;14.07;;
40164;SDS011;25882;51.120;17.248;2022-10-17T11:55:32;17.45;;;14.20;;
40164;SDS011;25882;51.120;17.248;2022-10-17T11:58:06;15.10;;;12.43;;
40164;SDS011;25882;51.120;17.248;2022-10-17T12:00:41;16.63;;;12.13;;
40164;SDS011;25882;51.120;17.248;2022-10-17T12:03:14;19.38;;;12.77;;
40164;SDS011;25882;51.120;17.248;2022-10-17T12:05:43;16.42;;;12.05;;
40164;SDS011;25882;51.120;17.248;2022-10-17T12:08:11;16.52;;;12.13;;
40164;SDS011;25882;51.120;17.248;2022-10-17T12:10:44;18.98;;;12.27;;
40164;SDS011;25882;51.120;17.248;2022-10-17T12:15:55;17.58;;;12.15;;
40164;SDS011;25882;51.120;17.248;2022-10-17T12:18:22;16.08;;;12.38;;
40164;SDS011;25882;51.120;17.248;2022-10-17T12:20:54;18.17;;;13.20;;
40164;SDS011;25882;51.120;17.248;2022-10-17T12:23:22;16.45;;;12.05;;
40164;SDS011;25882;51.120;17.248;2022-10-17T12:25:52;16.40;;;11.87;;
40164;SDS011;25882;51.120;17.248;2022-10-17T12:28:22;18.48;;;13.25;;
40164;SDS011;25882;51.120;17.248;2022-10-17T12:31:22;16.52;;;12.63;;
40164;SDS011;25882;51.120;17.248;2022-10-17T12:33:50;27.50;;;13.68;;
40164;SDS011;25882;51.120;17.248;2022-10-17T12:41:56;16.67;;;12.40;;
40164;SDS011;25882;51.120;17.248;2022-10-17T12:52:20;18.33;;;13.32;;
40164;SDS011;25882;51.120;17.248;2022-10-17T12:54:48;17.30;;;12.95;;
40164;SDS011;25882;51.120;17.248;2022-10-17T12:57:19;17.60;;;12.52;;
40164;SDS011;25882;51.120;17.248;2022-10-17T12:59:46;16.20;;;12.02;;
40164;SDS011;25882;51.120;17.248;2022-10-17T13:02:15;18.58;;;12.75;;
40164;SDS011;25882;51.120;17.248;2022-10-17T13:04:42;19.60;;;12.85;;
40164;SDS011;25882;51.120;17.248;2022-10-17T13:07:11;15.27;;;11.88;;
40164;SDS011;25882;51.120;17.248;2022-10-17T13:09:41;19.98;;;12.57;;
40164;SDS011;25882;51.120;17.248;2022-10-17T13:12:10;17.08;;;12.60;;
40164;SDS011;25882;51.120;17.248;2022-10-17T13:14:38;17.48;;;12.70;;
40164;SDS011;25882;51.120;17.248;2022-10-17T13:17:06;17.60;;;12.73;;
40164;SDS011;25882;51.120;17.248;2022-10-17T13:19:44;16.92;;;13.10;;
40164;SDS011;25882;51.120;17.248;2022-10-17T13:22:12;21.92;;;14.32;;
40164;SDS011;25882;51.120;17.248;2022-10-17T13:24:40;18.25;;;13.40;;
40164;SDS011;25882;51.120;17.248;2022-10-17T13:27:20;17.92;;;13.70;;
40164;SDS011;25882;51.120;17.248;2022-10-17T13:29:47;17.73;;;13.32;;
40164;SDS011;25882;51.120;17.248;2022-10-17T13:32:13;20.23;;;13.95;;
40164;SDS011;25882;51.120;17.248;2022-10-17T13:34:39;17.70;;;13.45;;
40164;SDS011;25882;51.120;17.248;2022-10-17T13:37:06;16.05;;;12.95;;
40164;SDS011;25882;51.120;17.248;2022-10-17T13:39:35;19.77;;;12.68;;
40164;SDS011;25882;51.120;17.248;2022-10-17T13:42:03;17.40;;;12.65;;
40164;SDS011;25882;51.120;17.248;2022-10-17T13:44:31;15.95;;;12.73;;
40164;SDS011;25882;51.120;17.248;2022-10-17T13:46:59;18.65;;;13.52;;
40164;SDS011;25882;51.120;17.248;2022-10-17T13:49:28;17.05;;;12.38;;
40164;SDS011;25882;51.120;17.248;2022-10-17T13:51:56;16.95;;;13.32;;
40164;SDS011;25882;51.120;17.248;2022-10-17T13:54:33;14.70;;;11.70;;
40164;SDS011;25882;51.120;17.248;2022-10-17T13:57:00;17.35;;;12.13;;
40164;SDS011;25882;51.120;17.248;2022-10-17T13:59:27;19.67;;;12.50;;
40164;SDS011;25882;51.120;17.248;2022-10-17T14:01:54;23.50;;;12.60;;
40164;SDS011;25882;51.120;17.248;2022-10-17T14:04:22;18.83;;;11.77;;
40164;SDS011;25882;51.120;17.248;2022-10-17T14:06:49;17.70;;;12.50;;
40164;SDS011;25882;51.120;17.248;2022-10-17T14:09:17;17.23;;;11.80;;
40164;SDS011;25882;51.120;17.248;2022-10-17T14:14:15;21.20;;;12.50;;
40164;SDS011;25882;51.120;17.248;2022-10-17T14:16:43;17.55;;;11.93;;
40164;SDS011;25882;51.120;17.248;2022-10-17T14:19:15;22.17;;;13.73;;
40164;SDS011;25882;51.120;17.248;2022-10-17T14:21:48;18.50;;;12.60;;
40164;SDS011;25882;51.120;17.248;2022-10-17T14:24:21;16.63;;;12.07;;
40164;SDS011;25882;51.120;17.248;2022-10-17T14:26:52;17.88;;;12.05;;
40164;SDS011;25882;51.120;17.248;2022-10-17T14:29:22;16.60;;;12.30;;
40164;SDS011;25882;51.120;17.248;2022-10-17T14:31:55;15.65;;;12.10;;
40164;SDS011;25882;51.120;17.248;2022-10-17T14:34:23;18.10;;;12.23;;
40164;SDS011;25882;51.120;17.248;2022-10-17T14:36:51;17.80;;;12.75;;
40164;SDS011;25882;51.120;17.248;2022-10-17T14:39:18;19.25;;;12.77;;